This is the latest recevied weather packets stored in our database for station/object KB6HGN. If no packets are shown the sender has not sent any weather packets the latest 10 day(s).
| Time | Temp. | Humidity | Pressure | Rain* | Wind** | Luminosity | Snow |
|---|---|---|---|---|---|---|---|
| 1778259305 | 19.44° C | 66% | 1016.6 hPa | 0 mm | - | 716 W/m² | - |
| 1778258105 | 18.89° C | 67% | 1016.9 hPa | 0 mm | - | 652 W/m² | - |
| 1778254804 | 16.67° C | 79% | 1017.3 hPa | 0 mm | - | 470 W/m² | - |
| 1778253905 | 16.11° C | 83% | 1017.2 hPa | 0 mm | - | 406 W/m² | - |
| 1778253604 | 16.11° C | 84% | 1017.2 hPa | 0 mm | - | 373 W/m² | - |
| 1778252704 | 16.11° C | 85% | 1017.3 hPa | 0 mm | - | 307 W/m² | - |
| 1778249104 | 15° C | 87% | 1017.2 hPa | 0 mm | - | 60 W/m² | - |
| 1778247604 | 13.89° C | 86% | 1017.3 hPa | 0 mm | - | 19 W/m² | - |
| 1778245806 | 13.33° C | 84% | 1016.9 hPa | 0 mm | - | 0 W/m² | - |
| 1778243704 | 13.89° C | 84% | 1016.6 hPa | 0 mm | - | 0 W/m² | - |
| 1778243404 | 14.44° C | 84% | 1016.6 hPa | 0 mm | - | 0 W/m² | - |
| 1778242505 | 14.44° C | 84% | 1016.3 hPa | 0 mm | - | 0 W/m² | - |
| 1778241604 | 14.44° C | 83% | 1016.2 hPa | 0 mm | - | 0 W/m² | - |
| 1778241304 | 14.44° C | 83% | 1016.2 hPa | 0 mm | - | 0 W/m² | - |
| 1778238904 | 14.44° C | 81% | 1015.9 hPa | 0 mm | - | 0 W/m² | - |
| 1778238004 | 14.44° C | 80% | 1015.9 hPa | 0 mm | - | 0 W/m² | - |
| 1778236804 | 14.44° C | 79% | 1015.9 hPa | 0 mm | - | 0 W/m² | - |
| 1778236506 | 15° C | 79% | 1015.9 hPa | 0 mm | - | 0 W/m² | - |
| 1778235604 | 15° C | 78% | 1016.2 hPa | 0 mm | - | 0 W/m² | - |
| 1778234704 | 15.56° C | 77% | 1015.9 hPa | 0 mm | - | 0 W/m² | - |
| 1778233805 | 15.56° C | 77% | 1015.9 hPa | 0 mm | - | 0 W/m² | - |
| 1778232904 | 16.11° C | 76% | 1015.9 hPa | 0 mm | - | 0 W/m² | - |
| 1778228704 | 16.11° C | 74% | 1016.6 hPa | 0 mm | - | 0 W/m² | - |
| 1778227205 | 16.67° C | 72% | 1016.6 hPa | 0 mm | - | 0 W/m² | - |
| 1778226604 | 16.67° C | 72% | 1016.6 hPa | 0 mm | - | 0 W/m² | - |
* Rain latest hour (hover to see other rain measurements)
** Current wind speed in m/s (hover to see current wind gust speed)